Time;durP1;ratioP1;P1;durP2;ratioP2;P2;SDS_P1;SDS_P2;PMS_P1;PMS_P2;Temp;Humidity;BMP_temperature;BMP_pressure;BME280_temperature;BME280_humidity;BME280_pressure;Samples;Min_cycle;Max_cycle;Signal;HPM_P1;HPM_P2
2021/03/17 00:00:55;;;;;;;1.88;1.70;;;4.40;99.90;;;;;;5006963;28;20467;-79
2021/03/17 00:03:23;;;;;;;2.50;1.40;;;4.40;99.90;;;;;;5005555;28;20042;-80
2021/03/17 00:05:50;;;;;;;2.38;1.77;;;4.40;99.90;;;;;;4988982;28;20065;-80
2021/03/17 00:08:17;;;;;;;1.50;1.40;;;4.40;99.90;;;;;;4989919;28;20472;-79
2021/03/17 00:10:46;;;;;;;3.22;1.20;;;4.50;99.90;;;;;;4969148;28;20060;-79
2021/03/17 00:13:12;;;;;;;1.88;1.45;;;4.50;99.90;;;;;;5005232;28;20080;-79
2021/03/17 00:15:41;;;;;;;1.88;1.13;;;4.50;99.90;;;;;;5005417;28;20061;-80
2021/03/17 00:18:11;;;;;;;2.00;1.30;;;4.50;99.90;;;;;;4988802;28;20132;-80
2021/03/17 00:20:38;;;;;;;2.38;1.40;;;4.60;99.90;;;;;;4995836;28;20050;-79
2021/03/17 00:23:05;;;;;;;1.73;1.40;;;4.60;99.90;;;;;;5002768;28;20752;-80
2021/03/17 00:25:34;;;;;;;1.40;1.13;;;4.60;99.90;;;;;;5008131;28;20489;-79
2021/03/17 00:28:10;;;;;;;1.77;1.30;;;4.70;99.90;;;;;;5004760;28;20068;-79
2021/03/17 00:30:39;;;;;;;3.40;1.58;;;4.70;99.90;;;;;;5003304;28;20057;-80
2021/03/17 00:33:09;;;;;;;2.50;1.80;;;4.70;99.90;;;;;;5005771;28;20579;-80
2021/03/17 00:35:35;;;;;;;3.15;1.95;;;4.80;99.90;;;;;;4986625;28;20050;-80
2021/03/17 00:38:02;;;;;;;1.77;1.65;;;4.80;99.90;;;;;;4994251;28;20855;-79
2021/03/17 00:40:29;;;;;;;1.90;1.70;;;4.80;99.90;;;;;;4988703;28;20049;-79
2021/03/17 00:42:55;;;;;;;2.25;1.95;;;4.80;99.90;;;;;;4984737;28;20045;-79
2021/03/17 00:45:21;;;;;;;5.05;2.30;;;4.80;99.90;;;;;;5007028;28;20049;-79
2021/03/17 00:47:48;;;;;;;3.85;2.40;;;4.80;99.90;;;;;;5005135;28;20505;-79
2021/03/17 00:50:16;;;;;;;2.55;2.17;;;4.80;99.90;;;;;;5003849;28;20125;-79
2021/03/17 00:52:43;;;;;;;3.85;2.47;;;4.90;99.90;;;;;;4987034;28;20516;-79
2021/03/17 00:55:10;;;;;;;4.20;2.38;;;4.90;99.90;;;;;;4986894;28;20144;-80
2021/03/17 00:57:37;;;;;;;2.97;2.42;;;4.90;99.90;;;;;;4993353;28;20114;-78
2021/03/17 01:00:08;;;;;;;4.10;2.53;;;4.90;99.90;;;;;;5005465;28;20054;-80
2021/03/17 01:02:35;;;;;;;4.13;2.20;;;5.00;99.90;;;;;;4988253;28;20061;-79
2021/03/17 01:05:01;;;;;;;3.78;2.95;;;4.90;99.90;;;;;;5006307;28;20057;-80
2021/03/17 01:07:27;;;;;;;5.70;2.63;;;4.90;99.90;;;;;;5006069;28;20058;-79
2021/03/17 01:09:53;;;;;;;3.25;2.58;;;5.00;99.90;;;;;;5005581;28;20046;-79
2021/03/17 01:12:20;;;;;;;3.35;2.50;;;5.00;99.90;;;;;;4988671;28;20141;-79
2021/03/17 01:14:46;;;;;;;3.35;1.95;;;5.00;99.90;;;;;;4990696;28;20050;-79
2021/03/17 01:17:13;;;;;;;2.15;1.88;;;5.00;99.90;;;;;;5006385;28;20054;-79
2021/03/17 01:19:40;;;;;;;2.10;1.73;;;5.00;99.90;;;;;;4991409;28;20472;-79
2021/03/17 01:22:08;;;;;;;2.42;1.90;;;5.00;99.90;;;;;;4991662;28;20152;-79
2021/03/17 01:24:35;;;;;;;2.42;1.77;;;5.00;99.90;;;;;;5007664;28;20089;-80
2021/03/17 01:27:01;;;;;;;5.57;2.45;;;5.10;99.90;;;;;;4988031;28;20153;-79
2021/03/17 01:29:27;;;;;;;2.08;1.70;;;5.10;99.90;;;;;;4997239;28;20441;-79
2021/03/17 01:31:53;;;;;;;2.13;1.40;;;5.10;99.90;;;;;;5004606;28;20471;-79
2021/03/17 01:34:20;;;;;;;1.63;1.10;;;5.10;99.90;;;;;;5006495;28;20050;-80
2021/03/17 01:36:46;;;;;;;2.42;1.13;;;5.10;99.90;;;;;;4982751;28;20068;-80
2021/03/17 01:39:12;;;;;;;3.13;1.08;;;5.10;99.90;;;;;;4989227;28;20042;-79
2021/03/17 01:41:38;;;;;;;1.23;0.75;;;5.10;99.90;;;;;;5005747;28;20486;-79
2021/03/17 01:44:05;;;;;;;1.55;0.80;;;5.10;99.90;;;;;;5006134;28;20494;-78
2021/03/17 01:46:31;;;;;;;3.72;0.90;;;5.10;99.90;;;;;;5003899;28;20058;-81
2021/03/17 01:48:58;;;;;;;1.75;0.70;;;5.10;99.90;;;;;;5005272;28;20056;-80
2021/03/17 01:51:24;;;;;;;0.60;0.43;;;5.10;99.90;;;;;;5005511;28;20052;-79
2021/03/17 01:53:51;;;;;;;1.23;0.60;;;5.10;99.90;;;;;;5004633;28;20046;-78
2021/03/17 01:56:17;;;;;;;2.47;0.60;;;5.10;99.90;;;;;;5002112;28;20053;-79
2021/03/17 01:58:45;;;;;;;0.30;0.20;;;5.10;99.90;;;;;;5000159;28;20057;-79
2021/03/17 02:01:11;;;;;;;0.47;0.30;;;5.10;99.90;;;;;;5004821;28;20464;-79
2021/03/17 02:03:38;;;;;;;1.70;0.40;;;5.10;99.90;;;;;;5004670;28;20049;-79
2021/03/17 02:06:05;;;;;;;1.48;0.25;;;5.10;99.90;;;;;;5002806;28;20105;-79
2021/03/17 02:08:38;;;;;;;2.80;0.70;;;5.00;99.90;;;;;;4996518;28;20129;-79
2021/03/17 02:11:06;;;;;;;0.82;0.35;;;5.00;99.90;;;;;;4990613;28;20042;-79
2021/03/17 02:13:53;;;;;;;0.50;0.32;;;5.00;99.90;;;;;;5005445;28;20500;-78
2021/03/17 02:16:26;;;;;;;1.95;0.38;;;5.00;99.90;;;;;;5004024;28;20037;-79
2021/03/17 02:19:05;;;;;;;;;;;5.00;99.90;;;;;;5002488;28;20080;-79
2021/03/17 02:22:00;;;;;;;4.00;0.57;;;5.10;99.90;;;;;;5006332;28;19935;-79
2021/03/17 02:25:00;;;;;;;0.60;0.40;;;5.10;99.90;;;;;;4988034;28;20050;-79
2021/03/17 02:27:36;;;;;;;0.95;0.57;;;5.00;99.90;;;;;;4994862;28;20045;-79
2021/03/17 02:30:21;;;;;;;6.05;0.80;;;5.00;99.90;;;;;;5007566;28;20493;-79
2021/03/17 02:33:12;;;;;;;1.13;0.75;;;5.10;99.90;;;;;;5002533;28;20188;-80
2021/03/17 02:35:42;;;;;;;2.38;0.90;;;5.00;99.90;;;;;;5005294;28;20144;-80
2021/03/17 02:38:14;;;;;;;1.10;0.75;;;5.00;99.90;;;;;;4989582;28;20082;-80
2021/03/17 02:40:41;;;;;;;2.88;1.13;;;5.00;99.90;;;;;;5008304;28;20053;-80
2021/03/17 02:43:17;;;;;;;1.65;1.20;;;5.10;99.90;;;;;;5006152;28;20050;-80
2021/03/17 02:45:53;;;;;;;3.75;1.48;;;5.00;99.90;;;;;;5007208;28;20113;-79
2021/03/17 02:48:23;;;;;;;3.35;1.23;;;5.10;99.90;;;;;;5003525;28;20081;-79
2021/03/17 02:50:53;;;;;;;1.17;0.95;;;5.00;99.90;;;;;;5008973;28;20114;-79
2021/03/17 02:53:24;;;;;;;3.03;1.30;;;5.00;99.90;;;;;;4990800;28;20042;-80
2021/03/17 02:55:54;;;;;;;4.03;1.30;;;5.00;99.90;;;;;;4989744;28;20062;-79
2021/03/17 02:58:22;;;;;;;2.85;1.00;;;5.10;99.90;;;;;;5005446;28;20073;-79
2021/03/17 03:00:48;;;;;;;3.78;1.50;;;5.10;99.90;;;;;;5004347;28;20045;-79
2021/03/17 03:03:17;;;;;;;1.70;1.40;;;5.10;99.90;;;;;;5000486;28;20046;-80
2021/03/17 03:05:47;;;;;;;2.95;1.20;;;5.10;99.90;;;;;;4991701;28;20050;-80
2021/03/17 03:08:14;;;;;;;2.20;1.10;;;5.10;99.90;;;;;;5005624;28;20509;-80
2021/03/17 03:10:41;;;;;;;3.45;1.17;;;5.10;99.90;;;;;;5005669;28;20058;-79
2021/03/17 03:13:10;;;;;;;2.20;1.20;;;5.10;99.90;;;;;;5009443;28;20049;-80
2021/03/17 03:15:37;;;;;;;3.33;1.30;;;5.10;99.90;;;;;;5005490;28;20065;-80
2021/03/17 03:18:05;;;;;;;1.42;1.10;;;5.10;99.90;;;;;;5003557;28;20129;-79
2021/03/17 03:20:34;;;;;;;2.47;1.30;;;5.10;99.90;;;;;;5007515;28;20050;-78
2021/03/17 03:23:02;;;;;;;2.38;1.27;;;5.10;99.90;;;;;;5008541;28;20045;-79
2021/03/17 03:25:29;;;;;;;4.15;1.13;;;5.10;99.90;;;;;;4996226;28;20136;-80
2021/03/17 03:27:57;;;;;;;2.58;1.10;;;5.10;99.90;;;;;;4989760;28;20088;-80
2021/03/17 03:30:26;;;;;;;3.63;1.02;;;5.00;99.90;;;;;;4996976;28;20049;-80
2021/03/17 03:32:54;;;;;;;1.95;0.65;;;5.10;99.90;;;;;;4993879;28;21756;-80
2021/03/17 03:35:22;;;;;;;2.03;0.95;;;5.00;99.90;;;;;;5006107;28;20052;-80
2021/03/17 03:37:50;;;;;;;1.85;0.60;;;5.00;99.90;;;;;;5003914;28;20508;-79
2021/03/17 03:40:20;;;;;;;4.22;1.00;;;5.00;99.90;;;;;;5006922;28;20046;-79
2021/03/17 03:42:48;;;;;;;1.38;0.85;;;5.00;99.90;;;;;;4995010;28;20072;-79
2021/03/17 03:45:17;;;;;;;1.38;0.70;;;5.00;99.90;;;;;;5006927;28;20145;-80
2021/03/17 03:47:44;;;;;;;5.63;0.80;;;5.00;99.90;;;;;;5005546;28;20057;-79
2021/03/17 03:50:17;;;;;;;1.30;0.85;;;5.00;99.90;;;;;;5004941;28;20045;-80
2021/03/17 03:53:17;;;;;;;3.40;1.03;;;5.00;99.90;;;;;;5002356;28;20056;-79
2021/03/17 03:55:53;;;;;;;1.88;0.98;;;5.00;99.90;;;;;;4988424;28;20375;-79
2021/03/17 03:58:26;;;;;;;2.92;1.17;;;5.00;99.90;;;;;;5004014;28;20045;-79
2021/03/17 04:00:56;;;;;;;1.63;1.10;;;5.00;99.90;;;;;;4983414;28;22050;-79
2021/03/17 04:03:24;;;;;;;4.00;1.20;;;5.00;99.90;;;;;;5006166;28;20049;-80
2021/03/17 04:05:53;;;;;;;5.40;1.48;;;5.00;99.90;;;;;;5007200;28;20547;-80
2021/03/17 04:08:24;;;;;;;5.97;1.50;;;5.00;99.90;;;;;;4991406;28;20069;-79
2021/03/17 04:10:57;;;;;;;4.05;1.80;;;5.00;99.90;;;;;;5007262;28;20045;-80
2021/03/17 04:13:25;;;;;;;3.63;1.83;;;5.00;99.90;;;;;;5005043;28;20045;-79
2021/03/17 04:15:56;;;;;;;2.97;1.80;;;5.10;99.90;;;;;;5006215;28;20139;-79
2021/03/17 04:18:27;;;;;;;2.70;2.22;;;5.00;99.90;;;;;;5003327;28;20066;-79
2021/03/17 04:20:57;;;;;;;5.78;2.22;;;5.00;99.90;;;;;;4982132;28;20129;-79
2021/03/17 04:23:25;;;;;;;5.13;2.28;;;5.10;99.90;;;;;;5006376;28;20392;-79
2021/03/17 04:25:53;;;;;;;6.88;2.33;;;5.10;99.90;;;;;;4994921;28;20556;-79
2021/03/17 04:28:24;;;;;;;7.55;2.63;;;5.10;99.90;;;;;;5003727;28;20057;-79
2021/03/17 04:30:52;;;;;;;3.55;2.55;;;5.10;99.90;;;;;;4988557;28;20069;-79
2021/03/17 04:33:20;;;;;;;9.23;2.88;;;5.10;99.90;;;;;;5005859;28;20068;-79
2021/03/17 04:35:47;;;;;;;4.20;2.60;;;5.10;99.90;;;;;;4998924;28;20049;-80
2021/03/17 04:38:15;;;;;;;4.55;3.03;;;5.10;99.90;;;;;;5005167;28;20053;-79
2021/03/17 04:40:43;;;;;;;3.97;2.60;;;5.10;99.90;;;;;;5004977;28;20111;-79
2021/03/17 04:43:10;;;;;;;5.43;3.00;;;5.10;99.90;;;;;;4988800;28;20160;-79
2021/03/17 04:45:38;;;;;;;4.47;2.75;;;5.10;99.90;;;;;;5003239;28;20053;-80
2021/03/17 04:48:06;;;;;;;6.40;3.25;;;5.10;99.90;;;;;;4987275;28;20053;-79
2021/03/17 04:50:33;;;;;;;4.85;2.25;;;5.10;99.90;;;;;;4987505;28;20133;-80
2021/03/17 04:53:02;;;;;;;4.75;2.30;;;5.10;99.90;;;;;;4993468;28;20038;-79
2021/03/17 04:55:28;;;;;;;3.47;2.60;;;5.10;99.90;;;;;;5007343;28;20056;-79
2021/03/17 04:57:56;;;;;;;3.80;2.00;;;5.10;99.90;;;;;;5005225;28;20509;-80
2021/03/17 05:00:23;;;;;;;5.63;2.17;;;5.10;99.90;;;;;;5002807;28;20124;-80
2021/03/17 05:03:00;;;;;;;2.95;2.30;;;5.10;99.90;;;;;;5003230;28;20061;-78
2021/03/17 05:05:30;;;;;;;3.65;2.03;;;5.10;99.90;;;;;;4985484;28;20045;-79
2021/03/17 05:07:57;;;;;;;2.78;1.85;;;5.10;99.90;;;;;;5004308;28;20115;-79
2021/03/17 05:10:25;;;;;;;5.07;1.88;;;5.10;99.90;;;;;;5005145;28;20145;-79
2021/03/17 05:12:53;;;;;;;2.45;1.95;;;5.10;99.90;;;;;;4997036;28;20049;-80
2021/03/17 05:15:21;;;;;;;5.15;2.10;;;5.10;99.90;;;;;;4992830;28;20569;-80
2021/03/17 05:17:49;;;;;;;3.17;2.03;;;5.10;99.90;;;;;;4988437;28;20060;-79
2021/03/17 05:20:19;;;;;;;4.93;2.40;;;5.00;99.90;;;;;;5004929;28;20050;-79
2021/03/17 05:22:48;;;;;;;3.78;2.35;;;5.00;99.90;;;;;;5004997;28;20429;-80
2021/03/17 05:25:17;;;;;;;5.60;2.33;;;5.00;99.90;;;;;;4983588;28;20061;-80
2021/03/17 05:27:49;;;;;;;4.38;1.92;;;4.90;99.90;;;;;;5005694;28;20049;-79
2021/03/17 05:30:16;;;;;;;1.85;1.58;;;4.90;99.90;;;;;;4993731;28;20061;-79
2021/03/17 05:32:45;;;;;;;6.50;2.53;;;4.90;99.90;;;;;;5003889;28;20595;-79
2021/03/17 05:35:12;;;;;;;4.95;1.73;;;4.90;99.90;;;;;;5006997;28;20065;-80
2021/03/17 05:37:39;;;;;;;5.55;2.33;;;4.90;99.90;;;;;;4973979;28;20230;-79
2021/03/17 05:40:10;;;;;;;9.82;2.08;;;4.80;99.90;;;;;;4995602;28;20080;-80
2021/03/17 05:42:38;;;;;;;4.47;1.65;;;4.80;99.90;;;;;;4983247;28;20061;-80
2021/03/17 05:45:09;;;;;;;7.60;2.05;;;4.80;99.90;;;;;;4999539;28;20046;-79
2021/03/17 05:47:37;;;;;;;5.78;2.30;;;4.80;99.90;;;;;;4979320;28;20137;-80
2021/03/17 05:50:06;;;;;;;4.82;1.73;;;4.80;99.90;;;;;;4994129;28;20060;-80
2021/03/17 05:52:32;;;;;;;2.33;1.50;;;4.80;99.90;;;;;;4991867;28;20772;-80
2021/03/17 05:55:00;;;;;;;4.10;1.77;;;4.80;99.90;;;;;;4995824;28;20120;-81
2021/03/17 05:57:27;;;;;;;4.22;1.75;;;4.80;99.90;;;;;;5001987;28;20060;-79
2021/03/17 05:59:54;;;;;;;3.58;1.98;;;4.70;99.90;;;;;;4992845;28;20153;-79
2021/03/17 06:02:21;;;;;;;5.07;1.92;;;4.70;99.90;;;;;;4990990;28;20136;-79
2021/03/17 06:04:50;;;;;;;3.85;1.50;;;4.70;99.90;;;;;;4991867;28;20046;-79
2021/03/17 06:07:25;;;;;;;3.38;1.52;;;4.60;99.90;;;;;;4987876;28;20131;-80
2021/03/17 06:09:56;;;;;;;4.03;2.03;;;4.60;99.90;;;;;;4989721;28;20073;-79
2021/03/17 06:12:28;;;;;;;3.22;1.65;;;4.60;99.90;;;;;;5004349;28;20129;-80
2021/03/17 06:14:55;;;;;;;6.72;2.25;;;4.60;99.90;;;;;;5005605;28;20124;-79
2021/03/17 06:17:23;;;;;;;3.17;1.45;;;4.70;99.90;;;;;;4995179;28;21123;-78
2021/03/17 06:20:00;;;;;;;3.08;1.60;;;4.70;99.90;;;;;;5003517;28;20050;-79
2021/03/17 06:22:27;;;;;;;7.22;1.05;;;4.70;99.90;;;;;;5006986;28;20141;-80
2021/03/17 06:24:54;;;;;;;2.97;1.35;;;4.80;99.90;;;;;;4990756;28;20058;-79
2021/03/17 06:27:21;;;;;;;5.25;1.27;;;4.80;99.90;;;;;;4989417;28;20084;-79
2021/03/17 06:29:47;;;;;;;3.90;1.30;;;4.80;99.90;;;;;;5003616;28;20120;-79
2021/03/17 06:32:14;;;;;;;3.53;1.00;;;4.80;99.90;;;;;;5004396;28;21627;-79
2021/03/17 06:34:49;;;;;;;3.00;1.00;;;4.80;99.90;;;;;;4979831;28;20106;-80
2021/03/17 06:37:16;;;;;;;2.42;0.70;;;4.90;99.90;;;;;;4983005;28;20053;-79
2021/03/17 06:39:43;;;;;;;2.90;0.90;;;5.00;99.90;;;;;;4993872;28;20131;-80
2021/03/17 06:42:11;;;;;;;3.60;1.13;;;5.00;99.90;;;;;;5001849;28;20074;-80
2021/03/17 06:44:37;;;;;;;3.92;1.13;;;5.10;99.90;;;;;;4992034;28;20057;-80
2021/03/17 06:47:21;;;;;;;3.58;1.63;;;5.30;99.90;;;;;;4994585;28;20185;-80
2021/03/17 06:49:53;;;;;;;3.80;1.00;;;5.40;99.90;;;;;;5005105;28;20405;-80
2021/03/17 06:52:30;;;;;;;1.70;0.70;;;5.50;99.90;;;;;;4987387;28;20058;-82
2021/03/17 06:55:14;;;;;;;5.45;1.98;;;5.70;99.90;;;;;;5007096;28;20152;-81
2021/03/17 06:58:01;;;;;;;;;;;5.70;99.90;;;;;;5007063;28;20124;-80
2021/03/17 07:00:33;;;;;;;4.05;0.70;;;5.70;99.90;;;;;;4985455;28;20377;-81
2021/03/17 07:03:05;;;;;;;1.67;0.75;;;5.70;99.90;;;;;;5013274;28;20096;-80
2021/03/17 07:05:46;;;;;;;4.38;0.85;;;5.70;99.90;;;;;;5010753;28;20050;-82
2021/03/17 07:08:14;;;;;;;4.28;0.98;;;5.70;99.90;;;;;;4995687;28;20049;-82
2021/03/17 07:10:58;;;;;;;1.45;0.68;;;5.70;99.90;;;;;;5001727;28;20050;-81
2021/03/17 07:13:26;;;;;;;3.92;0.70;;;5.70;99.90;;;;;;5005630;28;20104;-82
2021/03/17 07:15:57;;;;;;;6.57;1.27;;;5.70;99.90;;;;;;4995943;28;20777;-83
2021/03/17 07:18:29;;;;;;;4.38;0.93;;;5.80;99.90;;;;;;5008517;28;20524;-81
2021/03/17 07:21:03;;;;;;;4.28;0.90;;;5.80;99.90;;;;;;4980189;28;20049;-82
2021/03/17 07:23:41;;;;;;;6.20;0.98;;;5.90;99.90;;;;;;4995618;28;20140;-80
2021/03/17 07:26:39;;;;;;;3.05;0.60;;;6.10;99.90;;;;;;5001851;28;20046;-83
2021/03/17 07:29:12;;;;;;;2.07;0.47;;;6.20;99.90;;;;;;4999560;28;20050;-81
2021/03/17 07:31:42;;;;;;;4.05;0.80;;;6.20;99.90;;;;;;5009182;28;20114;-80
2021/03/17 07:34:14;;;;;;;3.20;1.05;;;6.30;99.90;;;;;;4994913;28;20152;-80
2021/03/17 07:37:00;;;;;;;5.03;0.50;;;6.30;99.90;;;;;;5006057;28;20104;-82
2021/03/17 07:39:38;;;;;;;4.93;0.80;;;6.30;99.90;;;;;;4986268;28;20529;-82
2021/03/17 07:42:14;;;;;;;5.53;1.40;;;6.20;99.90;;;;;;4992347;28;20060;-84
2021/03/17 07:44:43;;;;;;;2.00;0.50;;;6.30;99.90;;;;;;4983121;28;20077;-83
2021/03/17 07:47:11;;;;;;;3.25;0.40;;;6.30;99.90;;;;;;5011683;28;20065;-83
2021/03/17 07:49:46;;;;;;;4.63;0.95;;;6.30;99.90;;;;;;5002016;28;20060;-82
2021/03/17 07:52:18;;;;;;;5.25;0.57;;;6.30;99.90;;;;;;4986712;28;20053;-83
2021/03/17 07:54:50;;;;;;;3.78;0.55;;;6.30;99.90;;;;;;4993603;28;20050;-83
2021/03/17 07:57:17;;;;;;;3.20;0.82;;;6.30;99.90;;;;;;4986847;28;20062;-83
2021/03/17 07:59:48;;;;;;;2.85;0.73;;;6.20;99.90;;;;;;4991776;28;20053;-83
2021/03/17 08:02:17;;;;;;;3.67;0.68;;;6.10;99.90;;;;;;4987164;28;20117;-83
2021/03/17 08:04:46;;;;;;;5.20;1.08;;;5.90;99.90;;;;;;4997043;28;20068;-83
2021/03/17 08:07:14;;;;;;;3.78;0.90;;;5.90;99.90;;;;;;5002405;28;20064;-83
2021/03/17 08:09:44;;;;;;;7.55;0.98;;;5.90;99.90;;;;;;5010675;28;20050;-83
2021/03/17 08:12:12;;;;;;;5.30;0.77;;;5.90;99.90;;;;;;5026514;28;20101;-83
2021/03/17 08:14:42;;;;;;;5.18;1.13;;;5.90;99.90;;;;;;5016556;28;20049;-82
2021/03/17 08:17:13;;;;;;;8.25;1.10;;;5.80;99.90;;;;;;5009918;28;20057;-82
2021/03/17 08:20:20;;;;;;;2.20;0.60;;;5.90;99.90;;;;;;5013676;28;20054;-84
2021/03/17 08:22:47;;;;;;;5.93;1.65;;;5.90;99.90;;;;;;5018535;28;20097;-82
2021/03/17 08:25:43;;;;;;;3.83;0.80;;;6.10;99.90;;;;;;5002214;28;20045;-83
2021/03/17 08:28:22;;;;;;;12.50;2.38;;;6.40;99.90;;;;;;5017114;28;20132;-82
2021/03/17 08:30:50;;;;;;;5.47;0.93;;;6.40;99.90;;;;;;5003897;28;20042;-83
2021/03/17 08:33:46;;;;;;;5.63;1.05;;;6.30;99.90;;;;;;5006328;28;20049;-81
2021/03/17 08:36:16;;;;;;;7.78;1.67;;;6.20;99.90;;;;;;4986701;28;20425;-83
2021/03/17 08:38:55;;;;;;;7.40;2.30;;;6.20;99.90;;;;;;4997104;28;20050;-83
2021/03/17 08:41:37;;;;;;;7.90;1.38;;;6.10;99.90;;;;;;4981113;28;20049;-84
2021/03/17 08:44:40;;;;;;;12.70;2.65;;;6.10;99.90;;;;;;5007150;28;20069;-82
2021/03/17 08:47:43;;;;;;;8.50;1.67;;;6.30;99.90;;;;;;5008460;28;20065;-81
2021/03/17 08:50:14;;;;;;;4.70;1.10;;;6.40;99.90;;;;;;4978857;28;20053;-82
2021/03/17 08:52:43;;;;;;;10.20;1.20;;;6.50;99.90;;;;;;4999743;28;20185;-83
2021/03/17 08:55:35;;;;;;;11.15;2.50;;;6.70;99.90;;;;;;5001668;28;20069;-81
2021/03/17 08:58:07;;;;;;;6.65;1.25;;;6.80;99.90;;;;;;4976873;28;20084;-82
2021/03/17 09:00:54;;;;;;;5.47;1.20;;;7.00;99.90;;;;;;4983274;28;20054;-82
2021/03/17 09:03:39;;;;;;;9.02;1.10;;;7.10;99.90;;;;;;4998403;28;20061;-82
2021/03/17 09:06:11;;;;;;;8.23;1.17;;;7.20;99.90;;;;;;4991162;28;20077;-83
2021/03/17 09:08:51;;;;;;;9.52;1.20;;;7.30;99.90;;;;;;5005578;28;20054;-82
2021/03/17 09:11:46;;;;;;;5.53;1.08;;;7.40;99.90;;;;;;4982578;28;20545;-82
2021/03/17 09:14:27;;;;;;;7.65;1.10;;;7.50;99.90;;;;;;5007974;28;20104;-82
2021/03/17 09:17:13;;;;;;;8.02;1.50;;;7.80;99.90;;;;;;4986200;28;20057;-82
2021/03/17 09:20:06;;;;;;;9.15;1.10;;;7.90;99.90;;;;;;4992367;28;20559;-83
2021/03/17 09:23:03;;;;;;;10.25;2.03;;;8.20;99.90;;;;;;5000373;28;20108;-83
2021/03/17 09:25:33;;;;;;;6.07;1.00;;;8.30;99.90;;;;;;4950903;28;20129;-83
2021/03/17 09:28:03;;;;;;;4.72;1.27;;;8.40;99.90;;;;;;4991199;28;20041;-83
2021/03/17 09:30:54;;;;;;;3.47;0.70;;;8.30;99.90;;;;;;5012187;28;20565;-82
2021/03/17 09:33:42;;;;;;;10.27;1.23;;;8.10;99.90;;;;;;4991613;28;20173;-83
2021/03/17 09:36:19;;;;;;;9.95;2.03;;;8.00;99.90;;;;;;4997050;28;20056;-82
2021/03/17 09:38:56;;;;;;;7.50;1.02;;;8.00;99.90;;;;;;5003881;28;20049;-81
2021/03/17 09:41:27;;;;;;;6.70;1.17;;;7.90;99.90;;;;;;4998873;28;20054;-80
2021/03/17 09:44:04;;;;;;;4.32;1.00;;;8.00;99.90;;;;;;4997209;28;20057;-81
2021/03/17 09:46:42;;;;;;;7.50;1.63;;;8.10;99.90;;;;;;5001875;28;20060;-79
2021/03/17 09:49:11;;;;;;;5.65;1.05;;;8.10;99.90;;;;;;4987925;28;20765;-80
2021/03/17 09:51:52;;;;;;;3.63;1.33;;;8.20;99.90;;;;;;5003230;28;20050;-81
2021/03/17 09:54:24;;;;;;;6.22;0.68;;;8.20;99.90;;;;;;5014366;28;20042;-81
2021/03/17 09:56:56;;;;;;;6.35;0.88;;;8.10;99.90;;;;;;5011813;28;20557;-81
2021/03/17 09:59:30;;;;;;;3.40;0.68;;;8.10;99.90;;;;;;5010867;28;20059;-81
2021/03/17 10:02:00;;;;;;;2.95;0.88;;;8.10;99.90;;;;;;5018851;28;20887;-81
2021/03/17 10:04:31;;;;;;;5.63;0.85;;;8.10;99.90;;;;;;5005294;28;20048;-81
2021/03/17 10:06:58;;;;;;;3.97;0.82;;;8.20;99.90;;;;;;4991182;28;20583;-81
2021/03/17 10:09:27;;;;;;;6.65;1.05;;;8.30;99.90;;;;;;5016345;28;20157;-81
2021/03/17 10:12:23;;;;;;;5.50;1.13;;;8.30;99.90;;;;;;5017892;28;20132;-81
2021/03/17 10:14:55;;;;;;;3.13;0.70;;;8.40;99.90;;;;;;5000903;28;20042;-81
2021/03/17 10:17:24;;;;;;;4.43;0.85;;;8.50;99.90;;;;;;4997307;28;20042;-81
2021/03/17 10:19:55;;;;;;;3.85;0.77;;;8.50;99.90;;;;;;5012149;28;20052;-82
2021/03/17 10:22:24;;;;;;;3.97;0.60;;;8.50;99.90;;;;;;4996391;28;20042;-81
2021/03/17 10:24:54;;;;;;;3.03;1.40;;;8.50;99.90;;;;;;5000891;28;20119;-81
2021/03/17 10:27:34;;;;;;;3.47;1.17;;;8.40;99.90;;;;;;5001041;28;20057;-82
2021/03/17 10:30:15;;;;;;;7.22;1.85;;;8.40;99.90;;;;;;5018980;28;20058;-82
2021/03/17 10:32:43;;;;;;;7.43;1.38;;;8.50;99.90;;;;;;4996103;28;20061;-81
2021/03/17 10:35:16;;;;;;;3.70;1.05;;;8.60;99.90;;;;;;5007169;28;20081;-82
2021/03/17 10:37:49;;;;;;;3.65;0.88;;;8.50;99.90;;;;;;4985628;28;20148;-81
2021/03/17 10:40:20;;;;;;;4.78;0.77;;;8.50;99.90;;;;;;5001140;28;20504;-81
2021/03/17 10:42:55;;;;;;;7.85;1.05;;;8.40;99.90;;;;;;5008079;28;20081;-81
2021/03/17 10:45:31;;;;;;;4.30;1.33;;;8.30;99.90;;;;;;5000983;28;20065;-82
2021/03/17 10:47:58;;;;;;;4.38;0.68;;;8.00;99.90;;;;;;4993069;28;20053;-81
2021/03/17 10:50:30;;;;;;;2.08;0.43;;;7.70;99.90;;;;;;5012122;28;20486;-81
2021/03/17 10:52:57;;;;;;;2.67;0.50;;;7.60;99.90;;;;;;4997273;28;20140;-81
2021/03/17 10:55:26;;;;;;;5.32;0.63;;;7.60;99.90;;;;;;4998827;28;20057;-81
2021/03/17 10:58:07;;;;;;;1.90;0.52;;;7.60;99.90;;;;;;4994273;28;20819;-81
2021/03/17 11:00:34;;;;;;;1.05;0.60;;;7.80;99.90;;;;;;5000296;28;20071;-81
2021/03/17 11:03:00;;;;;;;3.85;0.70;;;8.10;99.90;;;;;;5010895;28;20058;-81
2021/03/17 11:05:29;;;;;;;1.00;0.40;;;8.50;99.90;;;;;;4994458;28;20065;-81
2021/03/17 11:07:57;;;;;;;2.05;0.45;;;8.90;99.90;;;;;;5010715;28;20705;-81
2021/03/17 11:10:46;;;;;;;2.03;0.30;;;9.20;99.90;;;;;;4993025;28;20080;-81
2021/03/17 11:13:12;;;;;;;2.75;0.40;;;9.40;99.90;;;;;;5007482;28;20053;-82
2021/03/17 11:15:59;;;;;;;0.45;0.30;;;9.50;99.90;;;;;;5012042;28;20084;-82
2021/03/17 11:18:29;;;;;;;1.50;0.30;;;9.60;99.90;;;;;;4994861;28;20394;-81
2021/03/17 11:20:58;;;;;;;0.70;0.30;;;9.80;99.90;;;;;;5008788;28;20049;-82
2021/03/17 11:23:27;;;;;;;0.82;0.40;;;10.00;99.90;;;;;;4998475;28;20063;-82
2021/03/17 11:25:55;;;;;;;4.78;1.35;;;10.00;99.90;;;;;;4989066;28;20070;-79
2021/03/17 11:28:27;;;;;;;2.10;0.43;;;9.90;99.90;;;;;;4989099;28;20085;-79
2021/03/17 11:30:59;;;;;;;2.67;0.63;;;9.80;99.90;;;;;;5006746;28;20119;-80
2021/03/17 11:33:26;;;;;;;2.58;0.80;;;9.70;99.90;;;;;;4987804;28;20082;-81
2021/03/17 11:35:55;;;;;;;2.38;0.52;;;9.60;99.90;;;;;;4998865;28;20057;-81
2021/03/17 11:38:22;;;;;;;0.90;0.40;;;9.50;99.90;;;;;;5007833;28;20066;-81
2021/03/17 11:40:49;;;;;;;2.90;0.50;;;9.40;99.90;;;;;;5001158;28;20561;-81
2021/03/17 11:43:21;;;;;;;1.48;0.32;;;9.30;99.90;;;;;;4991557;28;20541;-81
2021/03/17 11:45:52;;;;;;;1.45;0.38;;;9.20;99.90;;;;;;4994026;28;20767;-79
2021/03/17 11:48:19;;;;;;;0.68;0.25;;;9.20;99.90;;;;;;4997954;28;20116;-82
2021/03/17 11:50:48;;;;;;;1.80;0.40;;;9.10;99.90;;;;;;4987105;28;20057;-81
2021/03/17 11:53:16;;;;;;;2.10;0.50;;;8.90;99.90;;;;;;4986260;28;20200;-80
2021/03/17 11:55:42;;;;;;;3.40;0.80;;;8.70;99.90;;;;;;5011210;28;20137;-83
2021/03/17 11:58:09;;;;;;;2.13;0.88;;;8.50;99.90;;;;;;5011548;28;20417;-82
2021/03/17 12:00:37;;;;;;;5.07;0.50;;;8.40;99.90;;;;;;4998030;28;20054;-82
2021/03/17 12:03:04;;;;;;;2.67;0.40;;;8.20;99.90;;;;;;4998579;28;20459;-82
2021/03/17 12:05:31;;;;;;;2.95;0.50;;;8.10;99.90;;;;;;5001675;28;20053;-82
2021/03/17 12:07:58;;;;;;;0.52;0.43;;;8.00;99.90;;;;;;5001202;28;20049;-81
2021/03/17 12:10:28;;;;;;;2.05;0.40;;;7.90;99.90;;;;;;4998395;28;20069;-83
2021/03/17 12:12:55;;;;;;;2.83;0.68;;;7.90;99.90;;;;;;4989025;28;20362;-82
2021/03/17 12:15:25;;;;;;;2.13;0.60;;;7.90;99.90;;;;;;4995171;28;20046;-82
2021/03/17 12:18:07;;;;;;;5.35;0.60;;;7.90;99.90;;;;;;5009142;28;20995;-83
2021/03/17 12:20:36;;;;;;;2.92;0.47;;;8.10;99.90;;;;;;4979520;28;20057;-84
2021/03/17 12:23:14;;;;;;;6.00;1.35;;;8.20;99.90;;;;;;4988290;28;20054;-82
2021/03/17 12:25:40;;;;;;;5.55;0.70;;;8.20;99.90;;;;;;4994928;28;20100;-83
2021/03/17 12:28:09;;;;;;;5.28;0.75;;;8.20;99.90;;;;;;5001512;28;20050;-82
2021/03/17 12:30:36;;;;;;;3.13;0.55;;;8.30;99.90;;;;;;4994624;28;20057;-83
2021/03/17 12:33:03;;;;;;;4.00;0.73;;;8.40;99.90;;;;;;4994677;28;20049;-83
2021/03/17 12:35:29;;;;;;;0.80;0.32;;;8.50;99.90;;;;;;4986043;28;20115;-83
2021/03/17 12:37:56;;;;;;;2.10;0.75;;;8.80;99.90;;;;;;4998383;28;20092;-82
2021/03/17 12:40:27;;;;;;;0.95;0.30;;;8.90;99.90;;;;;;5010915;28;20050;-82
2021/03/17 12:42:55;;;;;;;2.33;0.70;;;8.90;99.90;;;;;;4985479;28;20064;-81
2021/03/17 12:45:26;;;;;;;3.15;0.95;;;8.60;99.90;;;;;;4987866;28;20113;-82
2021/03/17 12:47:53;;;;;;;1.80;0.50;;;8.40;99.90;;;;;;4995137;28;20159;-82
2021/03/17 12:50:23;;;;;;;3.33;1.35;;;8.20;99.90;;;;;;5009458;28;20030;-82
2021/03/17 12:52:50;;;;;;;3.90;1.17;;;8.30;99.90;;;;;;4985432;28;20056;-83
2021/03/17 12:55:16;;;;;;;3.03;0.50;;;8.40;99.90;;;;;;4995882;28;20076;-82
2021/03/17 12:57:43;;;;;;;1.95;0.30;;;8.60;99.90;;;;;;4992856;28;20095;-81
2021/03/17 13:00:14;;;;;;;3.28;0.50;;;8.90;99.90;;;;;;4994172;28;20077;-81
2021/03/17 13:02:41;;;;;;;3.58;0.30;;;8.90;99.90;;;;;;4990998;28;20053;-81
2021/03/17 13:05:11;;;;;;;1.98;0.35;;;8.80;99.90;;;;;;5001192;28;20558;-83
2021/03/17 13:07:38;;;;;;;2.40;0.45;;;8.90;99.90;;;;;;4991703;28;20157;-83
2021/03/17 13:10:19;;;;;;;3.15;0.57;;;9.00;99.90;;;;;;4962508;28;20104;-86
2021/03/17 13:12:47;;;;;;;0.77;0.50;;;9.10;99.90;;;;;;4992214;28;20092;-83
2021/03/17 13:15:16;;;;;;;3.08;0.82;;;8.90;99.90;;;;;;5009462;28;20100;-82
2021/03/17 13:17:42;;;;;;;1.35;0.77;;;8.70;99.90;;;;;;4997085;28;20485;-83
2021/03/17 13:20:11;;;;;;;8.90;1.70;;;8.60;99.90;;;;;;4983852;28;20042;-79